Time;durP1;ratioP1;P1;durP2;ratioP2;P2;SDS_P1;SDS_P2;PMS_P1;PMS_P2;Temp;Humidity;BMP_temperature;BMP_pressure;BME280_temperature;BME280_humidity;BME280_pressure;Samples;Min_cycle;Max_cycle;Signal;HPM_P1;HPM_P2
2022/08/14 00:00:09;;;;;;;11.32;7.32;;;21.90;98.50;;;;;;5032716;28;20052;-70
2022/08/14 00:02:34;;;;;;;9.27;7.50;;;21.80;98.60;;;;;;5032641;28;20656;-70
2022/08/14 00:05:00;;;;;;;12.07;7.28;;;21.80;98.70;;;;;;5050607;28;20037;-70
2022/08/14 00:07:26;;;;;;;9.05;7.63;;;21.80;99.10;;;;;;5050649;28;20055;-70
2022/08/14 00:09:52;;;;;;;8.70;6.68;;;21.80;99.10;;;;;;5050566;28;20106;-70
2022/08/14 00:12:18;;;;;;;10.43;7.05;;;21.80;99.10;;;;;;5050337;28;20048;-70
2022/08/14 00:14:44;;;;;;;10.68;7.38;;;21.70;99.40;;;;;;5051357;28;20040;-70
2022/08/14 00:17:09;;;;;;;9.15;7.30;;;21.70;99.50;;;;;;5058067;28;20041;-70
2022/08/14 00:19:35;;;;;;;9.02;7.38;;;21.70;99.80;;;;;;5050929;28;20489;-70
2022/08/14 00:22:01;;;;;;;11.75;7.63;;;21.70;99.80;;;;;;5050328;28;20048;-70
2022/08/14 00:24:26;;;;;;;11.23;7.28;;;21.60;99.90;;;;;;5049980;28;20039;-70
2022/08/14 00:26:52;;;;;;;12.60;7.53;;;21.60;99.90;;;;;;5050199;28;20044;-70
2022/08/14 00:29:17;;;;;;;14.80;7.53;;;21.70;99.90;;;;;;5050048;28;20075;-70
2022/08/14 00:31:43;;;;;;;10.77;7.22;;;21.60;99.90;;;;;;5050099;28;20457;-70
2022/08/14 00:34:09;;;;;;;11.50;8.20;;;21.50;99.90;;;;;;5049946;28;20068;-70
2022/08/14 00:36:35;;;;;;;10.48;7.28;;;21.50;99.90;;;;;;5048565;28;20069;-70
2022/08/14 00:39:00;;;;;;;9.48;7.80;;;21.60;99.90;;;;;;5049975;28;20055;-70
2022/08/14 00:41:30;;;;;;;9.23;7.75;;;21.50;99.90;;;;;;5032313;28;20052;-70
2022/08/14 00:43:56;;;;;;;9.65;7.35;;;21.50;99.90;;;;;;5049700;28;20033;-70
2022/08/14 00:46:22;;;;;;;11.13;7.80;;;21.40;99.90;;;;;;5032256;28;20170;-70
2022/08/14 00:48:47;;;;;;;13.38;8.20;;;21.40;99.90;;;;;;5050132;28;20091;-69
2022/08/14 00:51:13;;;;;;;10.32;8.10;;;21.30;99.90;;;;;;5048313;28;20119;-69
2022/08/14 00:53:39;;;;;;;9.30;7.57;;;21.30;99.90;;;;;;5048682;28;20055;-70
2022/08/14 00:56:07;;;;;;;9.27;7.40;;;21.30;99.90;;;;;;5049758;28;20429;-69
2022/08/14 00:58:33;;;;;;;8.50;7.40;;;21.30;99.90;;;;;;5049626;28;20138;-69
2022/08/14 01:01:03;;;;;;;8.93;7.97;;;21.30;99.90;;;;;;5049802;28;20041;-70
2022/08/14 01:03:30;;;;;;;8.77;7.88;;;21.20;99.90;;;;;;5049251;28;20568;-69
2022/08/14 01:05:57;;;;;;;11.13;7.45;;;21.20;99.90;;;;;;5048572;28;20029;-70
2022/08/14 01:08:26;;;;;;;8.45;7.55;;;21.20;99.90;;;;;;5049583;28;20090;-70
2022/08/14 01:10:54;;;;;;;8.75;7.85;;;21.10;99.90;;;;;;5049625;28;20045;-70
2022/08/14 01:13:29;;;;;;;11.82;8.50;;;21.10;99.90;;;;;;5049391;28;20129;-70
2022/08/14 01:15:56;;;;;;;9.10;7.68;;;21.10;99.90;;;;;;5049484;28;20076;-70
2022/08/14 01:21:16;;;;;;;8.73;7.82;;;21.00;99.90;;;;;;5049590;28;20049;-69
2022/08/14 01:23:43;;;;;;;10.07;7.97;;;21.00;99.90;;;;;;5057995;28;20048;-70
2022/08/14 01:26:09;;;;;;;14.05;7.90;;;21.00;99.90;;;;;;5054429;28;20116;-71
2022/08/14 01:28:36;;;;;;;9.50;7.85;;;21.00;99.90;;;;;;5049517;28;20120;-71
2022/08/14 01:31:05;;;;;;;9.45;7.88;;;21.10;99.90;;;;;;5049469;28;20116;-71
2022/08/14 01:33:31;;;;;;;10.10;7.93;;;21.00;99.90;;;;;;5049199;28;20040;-71
2022/08/14 01:35:59;;;;;;;10.65;8.05;;;21.00;99.90;;;;;;5049526;28;20371;-71
2022/08/14 01:38:33;;;;;;;10.23;7.93;;;21.00;99.90;;;;;;5049578;28;20488;-71
2022/08/14 01:41:00;;;;;;;10.48;8.00;;;21.00;99.90;;;;;;5031817;28;20077;-71
2022/08/14 01:43:29;;;;;;;8.80;7.90;;;21.00;99.90;;;;;;5049422;28;20598;-71
2022/08/14 01:45:57;;;;;;;8.48;7.68;;;21.00;99.90;;;;;;5049553;28;20045;-71
2022/08/14 01:48:24;;;;;;;9.63;8.10;;;20.90;99.90;;;;;;5049344;28;20048;-71
2022/08/14 01:50:50;;;;;;;11.63;8.25;;;20.90;99.90;;;;;;5049656;28;20074;-71
2022/08/14 01:53:16;;;;;;;10.57;7.68;;;20.90;99.90;;;;;;5049456;28;20528;-71
2022/08/14 01:55:42;;;;;;;9.15;8.20;;;20.80;99.90;;;;;;5048604;28;20041;-71
2022/08/14 01:58:14;;;;;;;10.73;8.02;;;20.80;99.90;;;;;;5049338;28;20490;-71
2022/08/14 02:00:40;;;;;;;11.30;8.33;;;20.80;99.90;;;;;;5049311;28;20045;-71
2022/08/14 02:03:06;;;;;;;11.30;7.97;;;20.80;99.90;;;;;;5049273;28;20290;-71
2022/08/14 02:05:33;;;;;;;16.33;8.23;;;20.80;99.90;;;;;;5052929;28;20171;-71
2022/08/14 02:07:59;;;;;;;12.55;8.38;;;20.70;99.90;;;;;;5052936;28;20043;-71
2022/08/14 02:10:27;;;;;;;11.77;8.02;;;20.60;99.90;;;;;;5052678;28;20607;-69
2022/08/14 02:12:55;;;;;;;10.15;8.05;;;20.60;99.90;;;;;;5052571;28;20112;-69
2022/08/14 02:15:20;;;;;;;9.80;7.65;;;20.60;99.90;;;;;;5052603;28;20785;-69
2022/08/14 02:17:48;;;;;;;11.70;8.15;;;20.60;99.90;;;;;;5052758;28;20119;-70
2022/08/14 02:20:14;;;;;;;11.82;8.50;;;20.60;99.90;;;;;;5052342;28;20045;-70
2022/08/14 02:22:40;;;;;;;9.27;7.80;;;20.60;99.90;;;;;;5052187;28;20041;-70
2022/08/14 02:25:06;;;;;;;12.20;7.82;;;20.60;99.90;;;;;;5052624;28;20060;-70
2022/08/14 02:27:31;;;;;;;8.45;7.55;;;20.50;99.90;;;;;;5052828;28;20033;-70
2022/08/14 02:29:57;;;;;;;12.27;8.50;;;20.50;99.90;;;;;;5055374;28;20063;-71
2022/08/14 02:32:22;;;;;;;12.63;8.43;;;20.50;99.90;;;;;;5057785;28;20044;-71
2022/08/14 02:34:48;;;;;;;10.80;7.95;;;20.40;99.90;;;;;;5053486;28;20084;-71
2022/08/14 02:37:14;;;;;;;10.32;8.05;;;20.40;99.90;;;;;;5050940;28;20353;-71
2022/08/14 02:39:43;;;;;;;13.52;8.73;;;20.30;99.90;;;;;;5052318;28;20139;-71
2022/08/14 02:42:11;;;;;;;10.20;9.05;;;20.30;99.90;;;;;;5052228;28;20448;-70
2022/08/14 02:44:39;;;;;;;12.63;8.43;;;20.30;99.90;;;;;;5052396;28;20036;-71
2022/08/14 02:47:07;;;;;;;14.52;8.70;;;20.30;99.90;;;;;;5050828;28;20528;-71
2022/08/14 02:49:33;;;;;;;11.45;8.75;;;20.30;99.90;;;;;;5052132;28;20063;-71
2022/08/14 02:52:00;;;;;;;12.85;9.20;;;20.30;99.90;;;;;;5052062;28;20059;-71
2022/08/14 02:54:26;;;;;;;10.50;9.40;;;20.20;99.90;;;;;;5051383;28;20044;-71
2022/08/14 02:56:58;;;;;;;13.38;9.25;;;20.20;99.90;;;;;;5052101;28;20120;-71
2022/08/14 02:59:30;;;;;;;10.85;8.95;;;20.20;99.90;;;;;;5051955;28;20110;-71
2022/08/14 03:01:56;;;;;;;12.43;9.45;;;20.10;99.90;;;;;;5034175;28;20084;-71
2022/08/14 03:04:23;;;;;;;10.82;9.10;;;20.10;99.90;;;;;;5051679;28;20458;-71
2022/08/14 03:06:49;;;;;;;11.93;9.45;;;20.10;99.90;;;;;;5034065;28;20079;-71
2022/08/14 03:09:15;;;;;;;16.05;8.93;;;20.10;99.90;;;;;;5051766;28;20048;-71
2022/08/14 03:11:43;;;;;;;10.90;8.52;;;20.20;99.90;;;;;;5051794;28;20095;-71
2022/08/14 03:14:10;;;;;;;9.18;8.27;;;20.10;99.90;;;;;;5051394;28;20095;-71
2022/08/14 03:16:37;;;;;;;9.98;8.68;;;20.20;99.90;;;;;;5050675;28;20106;-70
2022/08/14 03:19:06;;;;;;;10.77;7.63;;;20.20;99.90;;;;;;5051628;28;20120;-71
2022/08/14 03:21:33;;;;;;;10.85;9.75;;;20.20;99.90;;;;;;5051445;28;20044;-71
2022/08/14 03:24:10;;;;;;;12.50;9.90;;;20.10;99.90;;;;;;5051144;28;20102;-71
2022/08/14 03:26:38;;;;;;;11.25;9.15;;;20.00;99.90;;;;;;5051435;28;20036;-71
2022/08/14 03:29:04;;;;;;;10.45;8.40;;;20.10;99.90;;;;;;5049813;28;20067;-70
2022/08/14 03:31:30;;;;;;;11.73;8.70;;;20.10;99.90;;;;;;5051349;28;20608;-71
2022/08/14 03:33:57;;;;;;;12.52;8.85;;;20.10;99.90;;;;;;5051040;28;20055;-71
2022/08/14 03:36:22;;;;;;;11.65;9.50;;;20.10;99.90;;;;;;5051173;28;20037;-71
2022/08/14 03:38:51;;;;;;;12.27;8.85;;;20.10;99.90;;;;;;5056419;28;20086;-70
2022/08/14 03:41:20;;;;;;;13.73;8.63;;;20.10;99.90;;;;;;5056405;28;20485;-70
2022/08/14 03:43:49;;;;;;;10.55;9.23;;;20.10;99.90;;;;;;5051577;28;20048;-70
2022/08/14 03:46:15;;;;;;;12.00;8.82;;;20.10;99.90;;;;;;5051740;28;20037;-70
2022/08/14 03:48:42;;;;;;;10.35;8.52;;;20.10;99.90;;;;;;5051828;28;20140;-70
2022/08/14 03:51:09;;;;;;;10.45;8.65;;;20.00;99.90;;;;;;5051435;28;20045;-70
2022/08/14 03:53:37;;;;;;;11.02;8.80;;;20.00;99.90;;;;;;5051191;28;20102;-70
2022/08/14 03:56:06;;;;;;;12.02;9.10;;;20.10;99.90;;;;;;5051220;28;20037;-70
2022/08/14 03:58:32;;;;;;;10.48;8.57;;;20.10;99.90;;;;;;5051446;28;20049;-70
2022/08/14 04:00:59;;;;;;;9.60;8.60;;;20.10;99.90;;;;;;5051412;28;20061;-69
2022/08/14 04:03:25;;;;;;;9.23;8.32;;;20.20;99.90;;;;;;5050916;28;20123;-70
2022/08/14 04:05:51;;;;;;;13.15;8.82;;;20.20;99.90;;;;;;5051188;28;20052;-70
2022/08/14 04:08:17;;;;;;;11.15;8.18;;;20.20;99.90;;;;;;5051030;28;20528;-70
2022/08/14 04:10:45;;;;;;;13.75;8.15;;;20.30;99.90;;;;;;5051116;28;20044;-70
2022/08/14 04:13:13;;;;;;;10.93;8.65;;;20.30;99.90;;;;;;5048421;28;20049;-71
2022/08/14 04:15:39;;;;;;;9.60;8.13;;;20.30;99.90;;;;;;5047883;28;20056;-70
2022/08/14 04:18:07;;;;;;;9.98;8.88;;;20.40;99.90;;;;;;5048843;28;20048;-70
2022/08/14 04:20:37;;;;;;;10.45;8.35;;;20.30;99.90;;;;;;5050392;28;20077;-70
2022/08/14 04:23:05;;;;;;;12.10;8.93;;;20.40;99.90;;;;;;5050328;28;20041;-70
2022/08/14 04:25:34;;;;;;;11.52;9.00;;;20.30;99.90;;;;;;5050399;28;20049;-70
2022/08/14 04:28:00;;;;;;;13.85;8.50;;;20.30;99.90;;;;;;5049670;28;20413;-70
2022/08/14 04:30:27;;;;;;;10.70;8.57;;;20.30;99.90;;;;;;5049765;28;20045;-70
2022/08/14 04:32:54;;;;;;;16.40;8.80;;;20.30;99.90;;;;;;5050719;28;20068;-70
2022/08/14 04:35:20;;;;;;;11.02;9.27;;;20.30;99.90;;;;;;5050470;28;20049;-70
2022/08/14 04:45:59;;;;;;;11.75;9.02;;;20.20;99.90;;;;;;5050575;28;20078;-70
2022/08/14 04:48:27;;;;;;;8.70;7.72;;;20.30;99.90;;;;;;5050641;28;20123;-70
2022/08/14 04:50:55;;;;;;;13.23;9.68;;;20.30;99.90;;;;;;5050359;28;20055;-70
2022/08/14 04:53:25;;;;;;;9.80;8.80;;;20.30;99.90;;;;;;5050194;28;20109;-70
2022/08/14 04:55:51;;;;;;;11.98;9.27;;;20.30;99.90;;;;;;5049681;28;20568;-70
2022/08/14 04:58:20;;;;;;;12.60;9.27;;;20.30;99.90;;;;;;5050590;28;20032;-70
2022/08/14 05:00:49;;;;;;;15.20;9.80;;;20.40;99.90;;;;;;5050249;28;20063;-70
2022/08/14 05:03:19;;;;;;;10.60;9.18;;;20.40;99.90;;;;;;5050168;28;20060;-71
2022/08/14 05:05:46;;;;;;;10.88;9.15;;;20.40;99.90;;;;;;5050188;28;20520;-71
2022/08/14 05:08:12;;;;;;;11.10;9.43;;;20.40;99.90;;;;;;5050106;28;20041;-71
2022/08/14 05:10:43;;;;;;;12.48;9.35;;;20.40;99.90;;;;;;5050186;28;20047;-71
2022/08/14 05:13:09;;;;;;;13.65;9.63;;;20.50;99.90;;;;;;5050124;28;20112;-71
2022/08/14 05:15:37;;;;;;;10.30;9.07;;;20.60;99.90;;;;;;5048769;28;20422;-71
2022/08/14 05:18:09;;;;;;;16.20;10.63;;;20.70;99.90;;;;;;5050243;28;20408;-71
2022/08/14 05:20:35;;;;;;;11.57;10.02;;;20.70;99.90;;;;;;5049961;28;20060;-69
2022/08/14 05:23:02;;;;;;;13.77;9.25;;;20.90;99.90;;;;;;5049611;28;20466;-70
2022/08/14 05:25:28;;;;;;;13.27;10.07;;;21.00;99.90;;;;;;5050240;28;20041;-70
2022/08/14 05:27:59;;;;;;;14.15;9.02;;;21.10;99.90;;;;;;5050011;28;20037;-70
2022/08/14 05:30:25;;;;;;;12.45;9.98;;;21.20;99.90;;;;;;5050142;28;20116;-70
2022/08/14 05:32:51;;;;;;;11.82;9.52;;;21.30;99.90;;;;;;5049772;28;20083;-70
2022/08/14 05:35:18;;;;;;;10.10;8.75;;;21.40;99.90;;;;;;5048660;28;20088;-70
2022/08/14 05:37:43;;;;;;;12.60;8.68;;;21.50;99.90;;;;;;5050112;28;20069;-70
2022/08/14 05:40:09;;;;;;;11.82;9.60;;;21.60;99.90;;;;;;5053447;28;20052;-70
2022/08/14 05:42:36;;;;;;;10.55;9.48;;;21.70;99.90;;;;;;5053546;28;20033;-70
2022/08/14 05:45:04;;;;;;;13.35;9.75;;;21.70;99.90;;;;;;5053922;28;20120;-70
2022/08/14 05:47:29;;;;;;;13.77;9.30;;;21.80;99.90;;;;;;5053843;28;20033;-70
2022/08/14 05:49:57;;;;;;;11.75;8.85;;;21.80;99.90;;;;;;5053886;28;20064;-70
2022/08/14 05:52:22;;;;;;;11.25;9.57;;;22.00;99.90;;;;;;5053358;28;20072;-70
2022/08/14 05:54:48;;;;;;;14.48;8.93;;;22.00;99.90;;;;;;5035669;28;20068;-70
2022/08/14 05:57:13;;;;;;;16.15;9.23;;;22.10;99.90;;;;;;5058162;28;20396;-69
2022/08/14 05:59:40;;;;;;;11.85;9.57;;;22.20;99.90;;;;;;5052590;28;20045;-70
2022/08/14 06:02:10;;;;;;;10.18;8.93;;;22.20;99.90;;;;;;5053582;28;20118;-70
2022/08/14 06:04:35;;;;;;;12.35;8.60;;;22.30;99.90;;;;;;5053419;28;20060;-70
2022/08/14 06:07:01;;;;;;;11.70;9.35;;;22.40;99.90;;;;;;5053318;28;20036;-70
2022/08/14 06:09:26;;;;;;;11.98;9.35;;;22.40;99.90;;;;;;5053258;28;20037;-70
2022/08/14 06:11:52;;;;;;;13.25;9.27;;;22.40;99.90;;;;;;5053346;28;20120;-70
2022/08/14 06:14:17;;;;;;;11.50;8.88;;;22.50;99.90;;;;;;5051438;28;20405;-70
2022/08/14 06:16:45;;;;;;;10.27;8.85;;;22.60;99.90;;;;;;5053202;28;20178;-70
2022/08/14 06:19:11;;;;;;;13.30;8.88;;;22.70;99.90;;;;;;5053112;28;20052;-70
2022/08/14 06:21:37;;;;;;;11.13;9.02;;;22.70;99.90;;;;;;5053045;28;20402;-69
2022/08/14 06:24:02;;;;;;;13.15;9.23;;;22.80;99.90;;;;;;5052847;28;20047;-70
2022/08/14 06:26:28;;;;;;;13.95;9.48;;;22.90;99.90;;;;;;5053160;28;20107;-70
2022/08/14 06:28:54;;;;;;;10.73;8.70;;;22.80;99.90;;;;;;5053192;28;20068;-70
2022/08/14 06:31:19;;;;;;;12.90;9.20;;;22.90;99.90;;;;;;5054068;28;20049;-73
2022/08/14 06:33:45;;;;;;;10.93;9.75;;;22.90;99.90;;;;;;5055689;28;20041;-71
2022/08/14 06:36:11;;;;;;;11.80;8.57;;;22.90;99.90;;;;;;5057804;28;20107;-70
2022/08/14 06:38:36;;;;;;;9.85;8.73;;;22.80;99.90;;;;;;5060000;28;20112;-71
2022/08/14 06:41:02;;;;;;;11.52;8.38;;;22.90;99.90;;;;;;5059334;28;20068;-71
2022/08/14 06:43:27;;;;;;;10.55;8.70;;;22.90;99.90;;;;;;5060318;28;20037;-71
2022/08/14 06:45:53;;;;;;;12.48;8.50;;;22.90;99.90;;;;;;5061056;28;20493;-71
2022/08/14 06:48:23;;;;;;;12.68;8.85;;;23.10;99.90;;;;;;5060614;28;20179;-71
2022/08/14 06:50:50;;;;;;;10.60;8.73;;;23.00;99.90;;;;;;5058948;28;20037;-71
2022/08/14 06:53:18;;;;;;;10.13;8.07;;;23.00;99.90;;;;;;5059861;28;20519;-71
2022/08/14 06:55:45;;;;;;;10.95;8.60;;;23.00;99.90;;;;;;5059162;28;20093;-71
2022/08/14 06:58:13;;;;;;;11.23;8.10;;;23.10;99.90;;;;;;5059776;28;20131;-71
2022/08/14 07:00:39;;;;;;;10.00;7.78;;;23.20;99.90;;;;;;5059605;28;20604;-71
2022/08/14 07:05:49;;;;;;;9.80;7.35;;;23.30;99.90;;;;;;5067321;28;20041;-71
2022/08/14 07:08:25;;;;;;;9.32;8.40;;;23.40;99.90;;;;;;5058876;28;20386;-70
2022/08/14 07:10:53;;;;;;;10.95;8.02;;;23.40;99.90;;;;;;5060489;28;20583;-70
2022/08/14 07:13:19;;;;;;;8.57;7.70;;;23.50;99.90;;;;;;5060250;28;20067;-71
2022/08/14 07:15:49;;;;;;;11.75;7.47;;;23.60;99.90;;;;;;5059699;28;20092;-71
2022/08/14 07:18:26;;;;;;;10.80;7.22;;;23.70;99.90;;;;;;5060405;28;20048;-71
2022/08/14 07:20:53;;;;;;;9.07;8.05;;;23.80;99.90;;;;;;5068492;28;20041;-71
2022/08/14 07:23:22;;;;;;;10.55;7.97;;;23.90;99.90;;;;;;5062858;28;20024;-71
2022/08/14 07:25:50;;;;;;;9.95;7.00;;;24.00;99.90;;;;;;5067400;28;20045;-71
2022/08/14 07:28:22;;;;;;;9.10;6.97;;;24.10;99.90;;;;;;5068305;28;20044;-72
2022/08/14 07:30:49;;;;;;;10.05;7.35;;;24.10;99.90;;;;;;5068878;28;20068;-71
2022/08/14 07:33:15;;;;;;;8.10;7.30;;;24.10;99.90;;;;;;5066878;28;20040;-71
2022/08/14 07:35:41;;;;;;;10.82;7.07;;;24.00;99.90;;;;;;5068562;28;20047;-71
2022/08/14 07:38:07;;;;;;;11.55;8.35;;;24.10;99.90;;;;;;5069675;28;20033;-72
2022/08/14 07:40:33;;;;;;;12.32;6.95;;;24.10;99.90;;;;;;5069944;28;20118;-71
2022/08/14 07:43:00;;;;;;;9.23;7.35;;;24.30;99.90;;;;;;5071162;28;20028;-72
2022/08/14 07:45:27;;;;;;;7.40;6.70;;;24.30;99.90;;;;;;5072700;28;20051;-71
2022/08/14 07:47:56;;;;;;;8.48;7.57;;;24.40;99.90;;;;;;5070388;28;20037;-71
2022/08/14 07:50:22;;;;;;;8.73;7.93;;;24.50;99.90;;;;;;5069241;28;20045;-71
2022/08/14 07:52:48;;;;;;;9.63;7.38;;;24.50;99.90;;;;;;5071198;28;20107;-71
2022/08/14 07:55:15;;;;;;;11.82;7.82;;;24.40;99.90;;;;;;5070070;28;20393;-72
2022/08/14 07:57:43;;;;;;;8.02;6.97;;;24.50;99.90;;;;;;5071035;28;20059;-72
2022/08/14 08:00:21;;;;;;;10.75;7.40;;;24.60;99.90;;;;;;5071236;28;20075;-72
2022/08/14 08:02:59;;;;;;;9.38;6.95;;;24.60;99.90;;;;;;5070721;28;20029;-71
2022/08/14 08:05:25;;;;;;;10.00;7.13;;;24.80;99.90;;;;;;5058859;28;20108;-71
2022/08/14 08:07:52;;;;;;;7.82;7.03;;;24.90;99.90;;;;;;5059899;28;20047;-71
2022/08/14 08:10:30;;;;;;;8.20;7.20;;;24.80;99.90;;;;;;5061365;28;20105;-71
2022/08/14 08:13:06;;;;;;;7.45;6.63;;;25.10;99.90;;;;;;5063030;28;20048;-71
2022/08/14 08:15:40;;;;;;;8.55;7.00;;;25.20;99.90;;;;;;5066223;28;20036;-71
2022/08/14 08:18:08;;;;;;;11.63;7.05;;;25.20;99.90;;;;;;5059945;28;20116;-72
2022/08/14 08:20:35;;;;;;;7.47;6.40;;;25.20;99.90;;;;;;5059396;28;20101;-71
2022/08/14 08:23:03;;;;;;;12.63;7.50;;;25.40;99.90;;;;;;5058734;28;20041;-71
2022/08/14 08:25:32;;;;;;;9.35;6.65;;;25.30;99.90;;;;;;5059716;28;20063;-71
2022/08/14 08:28:03;;;;;;;7.45;6.55;;;25.50;99.90;;;;;;5059473;28;20071;-71
2022/08/14 08:30:31;;;;;;;8.57;6.82;;;25.40;99.90;;;;;;5058415;28;20056;-71
2022/08/14 08:32:59;;;;;;;6.95;6.25;;;25.40;99.90;;;;;;5057185;28;20048;-71
2022/08/14 08:35:27;;;;;;;7.15;6.45;;;25.60;99.90;;;;;;5059450;28;20086;-71
2022/08/14 08:38:00;;;;;;;6.88;6.18;;;25.80;99.90;;;;;;5058580;28;20045;-72
2022/08/14 08:40:37;;;;;;;8.73;6.32;;;25.80;99.90;;;;;;5058050;28;20052;-71
2022/08/14 08:43:05;;;;;;;8.18;6.13;;;25.90;99.90;;;;;;5058231;28;20047;-71
2022/08/14 08:45:32;;;;;;;9.57;7.20;;;26.10;99.90;;;;;;5057972;28;20119;-72
2022/08/14 08:47:57;;;;;;;10.40;6.63;;;26.10;99.90;;;;;;5058709;28;20059;-73
2022/08/14 08:50:32;;;;;;;9.75;5.95;;;26.20;99.90;;;;;;5057400;28;20040;-71
2022/08/14 08:53:06;;;;;;;7.00;6.30;;;26.20;99.30;;;;;;5067139;28;20047;-72
2022/08/14 08:55:41;;;;;;;10.00;6.57;;;26.30;99.50;;;;;;5065299;28;20108;-72
2022/08/14 08:58:10;;;;;;;7.95;6.28;;;26.40;99.60;;;;;;5064672;28;20145;-72
2022/08/14 09:00:39;;;;;;;9.60;6.60;;;26.40;99.80;;;;;;5065773;28;20223;-71
2022/08/14 09:03:10;;;;;;;7.93;6.70;;;26.40;99.40;;;;;;5070238;28;20028;-76
2022/08/14 09:05:50;;;;;;;9.82;7.03;;;26.50;99.50;;;;;;5070649;28;20052;-76
2022/08/14 09:08:17;;;;;;;7.35;6.65;;;26.50;99.60;;;;;;5056355;28;20079;-76
2022/08/14 09:10:44;;;;;;;7.25;6.38;;;26.60;99.00;;;;;;5060474;28;20525;-76
2022/08/14 09:13:11;;;;;;;10.15;6.80;;;26.70;99.20;;;;;;5078549;28;20109;-76
2022/08/14 09:15:42;;;;;;;8.65;6.20;;;26.60;99.10;;;;;;5082242;28;20036;-75
2022/08/14 09:18:08;;;;;;;9.63;6.68;;;26.70;99.10;;;;;;5088776;28;20048;-76
2022/08/14 09:20:38;;;;;;;7.05;6.00;;;26.70;98.90;;;;;;5097003;28;20031;-77
2022/08/14 09:23:04;;;;;;;10.07;5.93;;;26.80;98.80;;;;;;5076874;28;20052;-76
2022/08/14 09:25:30;;;;;;;11.05;6.57;;;26.80;98.20;;;;;;5081317;28;20044;-76
2022/08/14 09:27:56;;;;;;;8.45;6.90;;;26.90;98.40;;;;;;5080904;28;20044;-76
2022/08/14 09:30:21;;;;;;;11.80;6.20;;;26.70;98.40;;;;;;5062754;28;20044;-76
2022/08/14 09:33:10;;;;;;;10.50;6.97;;;26.90;98.80;;;;;;5062222;28;20095;-76
2022/08/14 09:35:44;;;;;;;9.95;6.70;;;26.90;98.10;;;;;;5067540;28;20096;-76
2022/08/14 09:38:23;;;;;;;13.20;7.03;;;26.90;97.80;;;;;;5064651;28;20048;-76
2022/08/14 09:41:09;;;;;;;7.85;6.82;;;27.10;98.30;;;;;;5079299;28;20044;-76
2022/08/14 09:43:55;;;;;;;7.95;6.60;;;27.00;97.60;;;;;;5054546;28;20044;-77
2022/08/14 09:46:21;;;;;;;11.23;6.97;;;27.00;98.20;;;;;;5076574;28;20063;-76
2022/08/14 09:48:57;;;;;;;11.55;6.50;;;27.00;97.90;;;;;;5074317;28;20036;-76
2022/08/14 09:51:24;;;;;;;7.88;7.07;;;27.10;98.20;;;;;;5075826;28;20110;-76
2022/08/14 09:54:05;;;;;;;7.68;6.43;;;27.10;97.50;;;;;;5074460;28;20036;-76
2022/08/14 09:56:45;;;;;;;7.93;6.77;;;27.10;97.80;;;;;;5074258;28;20036;-77
2022/08/14 09:59:13;;;;;;;7.22;6.53;;;27.20;97.60;;;;;;5075413;28;20302;-74
2022/08/14 10:01:40;;;;;;;7.10;6.40;;;27.20;97.60;;;;;;5078614;28;20051;-75
2022/08/14 10:04:22;;;;;;;9.55;7.32;;;27.40;97.60;;;;;;5081365;28;20045;-75
2022/08/14 10:06:48;;;;;;;9.40;6.80;;;27.40;97.10;;;;;;5081276;28;20500;-76
2022/08/14 10:09:14;;;;;;;10.57;7.45;;;27.60;97.70;;;;;;5077004;28;20040;-76
2022/08/14 10:11:40;;;;;;;8.60;7.32;;;27.50;97.30;;;;;;5081661;28;20052;-75
2022/08/14 10:14:17;;;;;;;10.98;6.88;;;27.50;96.80;;;;;;5080766;28;20047;-75
2022/08/14 10:16:46;;;;;;;7.75;7.05;;;27.60;97.30;;;;;;5080882;28;20126;-75
2022/08/14 10:19:15;;;;;;;7.88;6.75;;;27.60;96.80;;;;;;5081523;28;20055;-75
2022/08/14 10:21:55;;;;;;;10.02;7.05;;;27.70;97.30;;;;;;5081546;28;20458;-75
2022/08/14 10:24:27;;;;;;;8.75;7.10;;;27.70;96.40;;;;;;5084245;28;20041;-75
2022/08/14 10:26:58;;;;;;;11.30;6.78;;;27.70;96.60;;;;;;5092805;28;20084;-75
2022/08/14 10:29:41;;;;;;;7.85;5.90;;;27.70;96.60;;;;;;5092810;28;20101;-75
2022/08/14 10:32:09;;;;;;;6.50;5.65;;;27.90;95.90;;;;;;5084061;28;20036;-75
2022/08/14 10:34:41;;;;;;;8.60;6.13;;;27.90;95.40;;;;;;5083224;28;20047;-75
2022/08/14 10:37:12;;;;;;;7.10;6.30;;;28.00;95.60;;;;;;5072375;28;20094;-73
2022/08/14 10:39:39;;;;;;;6.32;5.65;;;28.00;95.20;;;;;;5071472;28;20037;-74
2022/08/14 10:42:13;;;;;;;6.80;5.75;;;28.10;95.60;;;;;;5074127;28;20271;-74
2022/08/14 10:44:48;;;;;;;6.82;6.15;;;28.30;95.90;;;;;;5074614;28;20035;-73
2022/08/14 11:13:00;;;;;;;5.93;5.43;;;28.20;93.40;;;;;;5076538;28;20039;-74
2022/08/14 11:15:27;;;;;;;7.00;6.05;;;28.30;94.20;;;;;;5077605;28;20040;-74
2022/08/14 11:17:55;;;;;;;6.20;5.60;;;28.40;93.70;;;;;;5082098;28;20104;-74
2022/08/14 11:20:23;;;;;;;6.93;6.05;;;28.40;94.10;;;;;;5077475;28;20572;-74
2022/08/14 11:22:54;;;;;;;8.05;6.22;;;28.30;94.40;;;;;;5078111;28;20033;-74
2022/08/14 11:25:22;;;;;;;8.13;6.78;;;28.40;93.80;;;;;;5081853;28;20051;-74
2022/08/14 11:27:49;;;;;;;7.53;5.47;;;28.50;94.10;;;;;;5085027;28;20135;-74
2022/08/14 11:30:29;;;;;;;5.97;5.32;;;28.50;93.50;;;;;;5078706;28;20426;-74
2022/08/14 11:32:56;;;;;;;6.97;5.85;;;28.70;93.80;;;;;;5084103;28;20353;-74
2022/08/14 11:35:25;;;;;;;7.35;5.50;;;28.60;93.20;;;;;;5093641;28;20039;-73
2022/08/14 11:37:58;;;;;;;6.03;5.50;;;28.60;93.40;;;;;;5091355;28;20041;-74
2022/08/14 11:40:26;;;;;;;7.57;6.30;;;28.70;93.70;;;;;;5084643;28;20037;-74
2022/08/14 11:42:54;;;;;;;9.52;5.93;;;28.70;93.20;;;;;;5081240;28;20039;-72
2022/08/14 11:45:22;;;;;;;9.70;6.45;;;28.70;93.30;;;;;;5074857;28;20106;-70
2022/08/14 11:47:48;;;;;;;8.30;6.40;;;28.70;93.40;;;;;;5072228;28;20497;-70
2022/08/14 11:50:17;;;;;;;7.15;6.05;;;28.70;93.60;;;;;;5074020;28;20067;-73
2022/08/14 11:52:43;;;;;;;6.68;5.88;;;28.70;93.10;;;;;;5074960;28;20051;-74
2022/08/14 11:55:12;;;;;;;6.93;5.25;;;29.10;93.20;;;;;;5076054;28;20119;-74
2022/08/14 11:57:43;;;;;;;9.77;6.00;;;28.90;92.60;;;;;;5075489;28;20413;-74
2022/08/14 12:00:15;;;;;;;6.78;5.53;;;28.80;92.80;;;;;;5072358;28;20064;-74
2022/08/14 12:02:55;;;;;;;6.00;5.40;;;28.80;92.50;;;;;;5073079;28;20050;-74
2022/08/14 12:05:32;;;;;;;6.45;5.75;;;29.00;92.40;;;;;;5074153;28;20100;-74
2022/08/14 12:07:59;;;;;;;8.02;5.55;;;29.30;92.80;;;;;;5074801;28;20119;-74
2022/08/14 12:10:25;;;;;;;5.38;4.80;;;29.10;92.00;;;;;;5075644;28;20049;-74
2022/08/14 12:12:55;;;;;;;6.57;5.40;;;29.10;92.10;;;;;;5075533;28;20109;-74
2022/08/14 12:15:34;;;;;;;5.60;5.03;;;29.10;92.20;;;;;;5076553;28;20131;-74
2022/08/14 12:18:01;;;;;;;6.88;4.82;;;29.00;91.90;;;;;;5076725;28;20706;-74
2022/08/14 12:20:32;;;;;;;6.50;5.22;;;29.30;92.30;;;;;;5075035;28;20086;-74
2022/08/14 12:22:59;;;;;;;6.47;4.75;;;29.30;91.70;;;;;;5073421;28;20040;-75
2022/08/14 12:25:26;;;;;;;6.63;5.30;;;29.40;91.60;;;;;;5075054;28;20036;-75
2022/08/14 12:27:54;;;;;;;7.40;4.75;;;29.30;91.30;;;;;;5075951;28;20044;-74
2022/08/14 12:30:33;;;;;;;5.75;4.65;;;29.30;91.60;;;;;;5071796;28;20048;-74
2022/08/14 12:33:01;;;;;;;7.68;4.60;;;29.50;90.70;;;;;;5075055;28;20048;-75
2022/08/14 12:35:39;;;;;;;6.35;5.20;;;29.60;91.00;;;;;;5074087;28;20438;-74
2022/08/14 12:38:06;;;;;;;9.02;5.45;;;29.70;91.10;;;;;;5075189;28;20052;-74
2022/08/14 12:40:31;;;;;;;5.72;4.40;;;29.70;91.40;;;;;;5075210;28;20079;-74
2022/08/14 12:43:04;;;;;;;7.95;5.03;;;29.90;91.30;;;;;;5091928;28;20048;-74
2022/08/14 12:45:32;;;;;;;9.20;5.50;;;29.80;91.50;;;;;;5085608;28;20032;-74
2022/08/14 12:48:04;;;;;;;4.85;4.40;;;29.80;91.10;;;;;;5075997;28;20033;-74
2022/08/14 12:50:39;;;;;;;5.30;4.80;;;29.90;90.30;;;;;;5074876;28;20044;-74
2022/08/14 12:53:06;;;;;;;4.90;4.50;;;30.00;90.30;;;;;;5075984;28;20036;-74
2022/08/14 12:55:34;;;;;;;7.93;5.00;;;30.00;90.90;;;;;;5075954;28;20039;-74
2022/08/14 12:58:02;;;;;;;8.52;5.03;;;30.00;90.80;;;;;;5072854;28;20048;-74
2022/08/14 13:00:28;;;;;;;7.07;5.32;;;30.00;90.10;;;;;;5074016;28;20070;-74
2022/08/14 13:02:55;;;;;;;8.00;5.10;;;30.10;90.10;;;;;;5073252;28;20088;-74
2022/08/14 13:05:25;;;;;;;9.30;4.68;;;30.00;90.20;;;;;;5074852;28;20048;-74
2022/08/14 13:07:51;;;;;;;6.85;4.85;;;29.90;89.30;;;;;;5076163;28;20120;-74
2022/08/14 13:10:22;;;;;;;6.05;4.95;;;30.00;90.00;;;;;;5074740;28;20044;-74
2022/08/14 13:12:50;;;;;;;6.55;4.55;;;30.20;90.30;;;;;;5076539;28;20052;-74
2022/08/14 13:15:17;;;;;;;5.90;4.70;;;30.20;88.50;;;;;;5074622;28;20080;-74
2022/08/14 13:17:55;;;;;;;9.10;4.50;;;30.40;89.80;;;;;;5074133;28;20090;-74
2022/08/14 13:20:23;;;;;;;5.63;4.70;;;30.30;90.20;;;;;;5074600;28;20416;-74
2022/08/14 13:22:50;;;;;;;6.40;5.30;;;30.30;88.10;;;;;;5075690;28;20092;-74
2022/08/14 13:25:19;;;;;;;6.18;5.03;;;30.20;88.00;;;;;;5074240;28;20049;-74